createdAt,value
2023-02-18T00:00:34.478Z,100214.00
2023-02-18T00:03:07.522Z,100230.00
2023-02-18T00:05:34.379Z,100226.00
2023-02-18T00:08:07.512Z,100225.00
2023-02-18T00:10:34.379Z,100224.00
2023-02-18T00:13:07.493Z,100223.00
2023-02-18T00:15:44.519Z,100225.00
2023-02-18T00:18:11.443Z,100211.00
2023-02-18T00:20:46.483Z,100207.00
2023-02-18T00:23:13.327Z,100206.00
2023-02-18T00:25:46.508Z,100210.00
2023-02-18T00:28:19.465Z,100215.00
2023-02-18T00:30:46.328Z,100207.00
2023-02-18T00:33:19.482Z,100210.00
2023-02-18T00:35:46.338Z,100210.00
2023-02-18T00:38:19.514Z,100207.00
2023-02-18T00:40:47.379Z,100201.00
2023-02-18T00:43:20.513Z,100206.00
2023-02-18T00:45:47.471Z,100212.00
2023-02-18T00:48:21.848Z,100210.00
2023-02-18T00:50:55.694Z,100209.00
2023-02-18T00:53:26.424Z,100201.00
2023-02-18T00:55:55.202Z,100197.00
2023-02-18T00:58:28.532Z,100195.00
2023-02-18T01:01:07.931Z,100174.00
2023-02-18T01:03:37.583Z,100193.00
2023-02-18T01:06:12.721Z,100188.00
2023-02-18T01:08:40.259Z,100182.00
2023-02-18T01:11:08.604Z,100177.00
2023-02-18T01:13:42.537Z,100186.00
2023-02-18T01:16:10.812Z,100187.00
2023-02-18T01:18:44.531Z,100183.00
2023-02-18T01:21:18.936Z,100167.00
2023-02-18T01:23:52.890Z,100187.00
2023-02-18T01:26:20.269Z,100179.00
2023-02-18T01:28:53.484Z,100182.00
2023-02-18T01:31:26.648Z,100163.00
2023-02-18T01:33:53.584Z,100166.00
2023-02-18T01:36:26.550Z,100174.00
2023-02-18T01:38:53.440Z,100168.00
2023-02-18T01:41:27.557Z,100162.00
2023-02-18T01:44:18.727Z,100163.00
2023-02-18T01:46:52.603Z,100170.00
2023-02-18T01:49:39.540Z,100157.00
2023-02-18T01:52:26.225Z,100153.00
2023-02-18T01:55:03.540Z,100160.00
2023-02-18T01:57:35.790Z,100159.00
2023-02-18T02:00:16.553Z,100154.00
2023-02-18T02:02:46.043Z,100158.00
2023-02-18T02:05:19.510Z,100149.00
2023-02-18T02:07:46.705Z,100156.00
2023-02-18T02:10:20.532Z,100155.00
2023-02-18T02:13:05.987Z,100159.00
2023-02-18T02:15:51.563Z,100164.00
2023-02-18T02:18:27.593Z,100158.00
2023-02-18T02:21:25.612Z,100150.00
2023-02-18T02:24:04.642Z,100154.00
2023-02-18T02:27:11.575Z,100145.00
2023-02-18T02:29:50.459Z,100155.00
2023-02-18T02:32:57.548Z,100164.00
2023-02-18T02:36:05.385Z,100154.00
2023-02-18T02:39:17.558Z,100142.00
2023-02-18T02:42:15.049Z,100137.00
2023-02-18T02:45:32.629Z,100146.00
2023-02-18T02:48:46.192Z,100146.00
2023-02-18T02:51:25.601Z,100136.00
2023-02-18T02:53:52.476Z,100119.00
2023-02-18T02:56:31.602Z,100133.00
2023-02-18T02:59:06.244Z,100139.00
2023-02-18T03:01:45.606Z,100133.00
2023-02-18T03:04:56.582Z,100128.00
2023-02-18T03:07:48.548Z,100136.00
2023-02-18T03:10:46.928Z,100127.00
2023-02-18T03:13:31.557Z,100128.00
2023-02-18T03:16:13.668Z,100131.00
2023-02-18T03:18:46.146Z,100127.00
2023-02-18T03:21:40.572Z,100127.00
2023-02-18T03:24:42.603Z,100133.00
2023-02-18T03:27:30.578Z,100119.00
2023-02-18T03:30:10.858Z,100105.00
2023-02-18T03:32:44.556Z,100115.00
2023-02-18T03:35:17.084Z,100125.00
2023-02-18T03:37:56.616Z,100126.00
2023-02-18T03:40:23.492Z,100117.00
2023-02-18T03:42:50.377Z,100120.00
2023-02-18T03:45:23.554Z,100116.00
2023-02-18T03:47:50.401Z,100125.00
2023-02-18T03:50:23.571Z,100121.00
2023-02-18T03:52:50.444Z,100120.00
2023-02-18T03:55:23.555Z,100118.00
2023-02-18T03:57:50.467Z,100116.00
2023-02-18T04:00:24.584Z,100120.00
2023-02-18T04:02:51.437Z,100127.00
2023-02-18T04:05:24.546Z,100121.00
2023-02-18T04:07:51.419Z,100132.00
2023-02-18T04:10:29.935Z,100121.00
2023-02-18T04:12:56.842Z,100121.00
2023-02-18T04:15:30.704Z,100129.00
2023-02-18T04:17:57.589Z,100122.00
2023-02-18T04:20:24.484Z,100118.00
2023-02-18T04:22:57.572Z,100123.00
2023-02-18T04:25:30.580Z,100121.00
2023-02-18T04:27:57.475Z,100117.00
2023-02-18T04:30:31.693Z,100115.00
2023-02-18T04:33:05.610Z,100117.00
2023-02-18T04:35:39.282Z,100126.00
2023-02-18T04:38:08.533Z,100113.00
2023-02-18T04:40:41.626Z,100129.00
2023-02-18T04:43:14.631Z,100128.00
2023-02-18T04:45:41.600Z,100126.00
2023-02-18T04:48:14.613Z,100133.00
2023-02-18T04:50:41.534Z,100130.00
2023-02-18T04:53:14.621Z,100136.00
2023-02-18T04:55:52.062Z,100144.00
2023-02-18T04:58:26.599Z,100132.00
2023-02-18T05:00:53.543Z,100121.00
2023-02-18T05:03:20.500Z,100128.00
2023-02-18T05:05:53.603Z,100128.00
2023-02-18T05:08:20.559Z,100126.00
2023-02-18T05:10:53.617Z,100118.00
2023-02-18T05:13:20.758Z,100133.00
2023-02-18T05:15:47.656Z,100118.00
2023-02-18T05:18:21.607Z,100119.00
2023-02-18T05:20:54.587Z,100128.00
2023-02-18T05:23:27.634Z,100116.00
2023-02-18T05:26:01.630Z,100130.00
2023-02-18T05:28:34.646Z,100120.00
2023-02-18T05:31:01.604Z,100123.00
2023-02-18T05:33:34.634Z,100126.00
2023-02-18T05:36:01.532Z,100119.00
2023-02-18T05:38:34.647Z,100116.00
2023-02-18T05:41:01.562Z,100138.00
2023-02-18T05:43:28.436Z,100120.00
2023-02-18T05:46:01.662Z,100141.00
2023-02-18T05:48:28.572Z,100127.00
2023-02-18T05:51:01.653Z,100120.00
2023-02-18T05:53:28.535Z,100126.00
2023-02-18T05:56:01.606Z,100136.00
2023-02-18T05:58:41.646Z,100130.00
2023-02-18T06:01:08.564Z,100130.00
2023-02-18T06:03:41.632Z,100143.00
2023-02-18T06:06:09.294Z,100128.00
2023-02-18T06:08:36.416Z,100141.00
2023-02-18T06:11:10.683Z,100150.00
2023-02-18T06:13:37.560Z,100149.00
2023-02-18T06:16:04.890Z,100155.00
2023-02-18T06:18:38.678Z,100134.00
2023-02-18T06:21:05.789Z,100151.00
2023-02-18T06:23:39.690Z,100156.00
2023-02-18T06:26:06.987Z,100153.00
2023-02-18T06:28:40.633Z,100151.00
2023-02-18T06:31:07.808Z,100149.00
2023-02-18T06:33:41.683Z,100135.00
2023-02-18T06:36:09.839Z,100141.00
2023-02-18T06:38:37.994Z,100139.00
2023-02-18T06:41:14.257Z,100152.00
2023-02-18T06:43:41.215Z,100146.00
2023-02-18T06:46:14.657Z,100153.00
2023-02-18T06:48:47.714Z,100160.00
2023-02-18T06:51:14.772Z,100165.00
2023-02-18T06:53:48.692Z,100166.00
2023-02-18T06:56:15.657Z,100167.00
2023-02-18T06:58:48.662Z,100171.00
2023-02-18T07:01:15.803Z,100182.00
2023-02-18T07:03:50.326Z,100181.00
2023-02-18T07:06:23.721Z,100181.00
2023-02-18T07:08:50.695Z,100182.00
2023-02-18T07:11:24.782Z,100181.00
2023-02-18T07:13:51.898Z,100187.00
2023-02-18T07:16:19.025Z,100199.00
2023-02-18T07:18:52.707Z,100199.00
2023-02-18T07:21:26.686Z,100190.00
2023-02-18T07:23:53.644Z,100200.00
2023-02-18T07:26:26.694Z,100194.00
2023-02-18T07:28:53.762Z,100184.00
2023-02-18T07:31:27.745Z,100193.00
2023-02-18T07:33:54.911Z,100186.00
2023-02-18T07:36:28.678Z,100197.00
2023-02-18T07:39:02.754Z,100193.00
2023-02-18T07:41:36.729Z,100198.00
2023-02-18T07:44:04.259Z,100194.00
2023-02-18T07:46:31.343Z,100200.00
2023-02-18T07:49:04.760Z,100160.00
2023-02-18T07:51:31.766Z,100177.00
2023-02-18T07:53:58.775Z,100179.00
2023-02-18T07:56:32.676Z,100180.00
2023-02-18T07:58:59.708Z,100176.00
2023-02-18T08:01:33.706Z,100191.00
2023-02-18T08:04:00.793Z,100190.00
2023-02-18T08:06:54.698Z,100194.00
2023-02-18T08:09:28.746Z,100174.00
2023-02-18T08:11:56.246Z,100192.00
2023-02-18T08:14:29.707Z,100200.00
2023-02-18T08:16:57.000Z,100203.00
2023-02-18T08:19:30.736Z,100201.00
2023-02-18T08:22:01.579Z,100213.00
2023-02-18T08:24:34.697Z,100199.00
2023-02-18T08:27:01.891Z,100207.00
2023-02-18T08:29:29.419Z,100204.00
2023-02-18T08:32:02.771Z,100202.00
2023-02-18T08:34:29.811Z,100209.00
2023-02-18T08:37:03.770Z,100206.00
2023-02-18T08:39:39.691Z,100202.00
2023-02-18T08:42:13.753Z,100202.00
2023-02-18T08:44:40.864Z,100188.00
2023-02-18T08:48:13.700Z,100201.00
2023-02-18T08:50:01.772Z,100198.00
2023-02-18T08:52:34.777Z,100204.00
2023-02-18T08:55:01.831Z,100199.00
2023-02-18T08:57:35.890Z,100191.00
2023-02-18T09:00:03.364Z,100191.00
2023-02-18T09:02:36.720Z,100191.00
2023-02-18T09:06:32.537Z,100178.00
2023-02-18T09:09:06.377Z,100186.00
2023-02-18T09:11:33.488Z,100180.00
2023-02-18T09:14:00.618Z,100183.00
2023-02-18T09:16:34.331Z,100184.00
2023-02-18T09:19:01.401Z,100181.00
2023-02-18T09:21:35.358Z,100159.00
2023-02-18T09:24:02.436Z,100190.00
2023-02-18T09:26:36.290Z,100163.00
2023-02-18T09:29:03.298Z,100176.00
2023-02-18T09:31:37.410Z,100194.00
2023-02-18T09:34:04.533Z,100175.00
2023-02-18T09:36:31.685Z,100197.00
2023-02-18T09:39:05.375Z,100177.00
2023-02-18T09:41:34.535Z,100187.00
2023-02-18T09:44:27.308Z,100183.00
2023-02-18T09:47:01.395Z,100184.00
2023-02-18T09:49:38.392Z,100160.00
2023-02-18T09:52:30.379Z,100187.00
2023-02-18T09:55:04.432Z,100152.00
2023-02-18T09:57:52.398Z,100171.00
2023-02-18T10:00:41.326Z,100171.00
2023-02-18T10:03:28.416Z,100148.00
2023-02-18T10:06:16.365Z,100179.00
2023-02-18T10:08:52.391Z,100171.00
2023-02-18T10:11:35.279Z,100155.00
2023-02-18T10:14:08.306Z,100174.00
2023-02-18T10:16:35.415Z,100160.00
2023-02-18T10:19:36.326Z,100167.00
2023-02-18T10:22:05.552Z,100158.00
2023-02-18T10:24:46.343Z,100152.00
2023-02-18T10:27:30.412Z,100157.00
2023-02-18T10:30:20.122Z,100165.00
2023-02-18T10:32:54.338Z,100163.00
2023-02-18T10:35:35.044Z,100162.00
2023-02-18T10:38:42.459Z,100163.00
2023-02-18T10:41:18.426Z,100165.00
2023-02-18T10:44:25.374Z,100157.00
2023-02-18T10:47:06.441Z,100162.00
2023-02-18T10:50:04.405Z,100157.00
2023-02-18T10:52:36.019Z,100137.00
2023-02-18T10:55:13.491Z,100154.00
2023-02-18T10:57:52.179Z,100146.00
2023-02-18T11:00:31.424Z,100118.00
2023-02-18T11:03:21.670Z,100128.00
2023-02-18T11:05:58.530Z,100135.00
2023-02-18T11:08:34.400Z,100132.00
2023-02-18T11:11:01.518Z,100110.00
2023-02-18T11:13:36.366Z,100110.00
2023-02-18T11:16:06.340Z,100129.00
2023-02-18T11:18:52.457Z,100118.00
2023-02-18T11:21:29.199Z,100120.00
2023-02-18T11:24:03.418Z,100098.00
2023-02-18T11:26:32.374Z,100106.00
2023-02-18T11:29:29.478Z,100098.00
2023-02-18T11:31:56.635Z,100081.00
2023-02-18T11:34:27.466Z,100058.00
2023-02-18T11:37:01.364Z,100093.00
2023-02-18T11:39:28.757Z,100066.00
2023-02-18T11:42:01.356Z,100050.00
2023-02-18T11:44:49.422Z,100050.00
2023-02-18T11:47:22.408Z,100076.00
2023-02-18T11:50:11.122Z,100052.00
2023-02-18T11:52:56.323Z,100051.00
2023-02-18T11:55:30.266Z,100039.00
2023-02-18T11:58:12.397Z,100041.00
2023-02-18T12:00:47.503Z,100031.00
2023-02-18T12:03:29.454Z,100038.00
2023-02-18T12:06:06.447Z,100017.00
2023-02-18T12:08:40.176Z,100012.00
2023-02-18T12:11:21.496Z,100008.00
2023-02-18T12:13:52.728Z,99991.00
2023-02-18T12:16:53.385Z,100010.00
2023-02-18T12:19:50.523Z,100003.00
2023-02-18T12:22:36.404Z,100001.00
2023-02-18T12:25:26.308Z,99998.00
2023-02-18T12:28:41.547Z,99995.00
2023-02-18T12:31:34.544Z,99983.00
2023-02-18T12:34:37.442Z,99984.00
2023-02-18T12:37:38.017Z,99971.00
2023-02-18T12:40:53.460Z,99980.00
2023-02-18T12:43:40.460Z,99969.00
2023-02-18T12:46:58.427Z,99973.00
2023-02-18T12:50:04.043Z,99959.00
2023-02-18T12:52:58.531Z,99964.00
2023-02-18T12:55:56.496Z,99958.00
2023-02-18T12:58:36.296Z,99951.00
2023-02-18T13:01:19.558Z,99953.00
2023-02-18T13:04:14.408Z,99941.00
2023-02-18T13:07:34.443Z,99936.00
2023-02-18T13:10:50.531Z,99926.00
2023-02-18T13:13:36.435Z,99924.00
2023-02-18T13:16:15.498Z,99907.00
2023-02-18T13:18:56.468Z,99909.00
2023-02-18T13:21:30.407Z,99900.00
2023-02-18T13:24:04.493Z,99902.00
2023-02-18T13:26:39.410Z,99903.00
2023-02-18T13:29:57.630Z,99904.00
2023-02-18T13:32:31.908Z,99898.00
2023-02-18T13:35:20.478Z,99890.00
2023-02-18T13:38:02.288Z,99886.00
2023-02-18T13:40:36.450Z,99881.00
2023-02-18T13:43:27.578Z,99889.00
2023-02-18T13:46:13.534Z,99885.00
2023-02-18T13:48:53.126Z,99884.00
2023-02-18T13:51:47.466Z,99886.00
2023-02-18T13:54:14.370Z,99875.00
2023-02-18T13:57:00.508Z,99865.00
2023-02-18T13:59:49.317Z,99875.00
2023-02-18T14:02:32.554Z,99872.00
2023-02-18T14:05:30.460Z,99867.00
2023-02-18T14:08:36.397Z,99857.00
2023-02-18T14:11:19.496Z,99861.00
2023-02-18T14:14:14.115Z,99852.00
2023-02-18T14:17:24.554Z,99857.00
2023-02-18T14:20:26.006Z,99850.00
2023-02-18T14:22:59.450Z,99847.00
2023-02-18T14:25:56.461Z,99841.00
2023-02-18T14:28:37.010Z,99831.00
2023-02-18T14:31:22.197Z,99839.00
2023-02-18T14:35:05.537Z,99841.00
2023-02-18T14:37:52.370Z,99840.00
2023-02-18T14:41:12.505Z,99836.00
2023-02-18T14:44:10.528Z,99837.00
2023-02-18T14:46:58.106Z,99834.00
2023-02-18T14:49:44.574Z,99838.00
2023-02-18T14:52:43.123Z,99835.00
2023-02-18T14:55:45.556Z,99829.00
2023-02-18T14:58:34.477Z,99840.00
2023-02-18T15:01:20.527Z,99824.00
2023-02-18T15:03:58.560Z,99826.00
2023-02-18T15:06:28.503Z,99820.00
2023-02-18T15:08:55.547Z,99820.00
2023-02-18T15:11:32.547Z,99811.00
2023-02-18T15:13:59.596Z,99826.00
2023-02-18T15:16:40.557Z,99808.00
2023-02-18T15:19:15.167Z,99826.00
2023-02-18T15:21:51.514Z,99822.00
2023-02-18T15:24:38.198Z,99813.00
2023-02-18T15:27:22.657Z,99826.00
2023-02-18T15:29:57.902Z,99828.00
2023-02-18T15:32:34.583Z,99827.00
2023-02-18T15:35:03.515Z,99823.00
2023-02-18T15:37:30.910Z,99810.00
2023-02-18T15:40:04.570Z,99827.00
2023-02-18T15:42:36.720Z,99830.00
2023-02-18T15:45:23.567Z,99823.00
2023-02-18T15:48:01.537Z,99812.00
2023-02-18T15:50:45.033Z,99831.00
2023-02-18T15:53:23.591Z,99827.00
2023-02-18T15:55:52.044Z,99827.00
2023-02-18T15:58:37.652Z,99834.00
2023-02-18T16:01:07.177Z,99823.00
2023-02-18T16:03:46.599Z,99826.00
2023-02-18T16:06:25.702Z,99820.00
2023-02-18T16:09:26.666Z,99832.00
2023-02-18T16:11:56.792Z,99822.00
2023-02-18T16:14:52.594Z,99821.00
2023-02-18T16:17:27.594Z,99818.00
2023-02-18T16:20:05.934Z,99824.00
2023-02-18T16:22:32.901Z,99821.00
2023-02-18T16:25:08.576Z,99813.00
2023-02-18T16:27:44.581Z,99826.00
2023-02-18T16:30:41.310Z,99823.00
2023-02-18T16:33:15.574Z,99799.00
2023-02-18T16:35:49.452Z,99809.00
2023-02-18T16:38:30.556Z,99819.00
2023-02-18T16:40:57.532Z,99810.00
2023-02-18T16:43:33.596Z,99812.00
2023-02-18T16:46:30.605Z,99810.00
2023-02-18T16:48:57.520Z,99804.00
2023-02-18T16:51:41.160Z,99811.00
2023-02-18T16:54:12.072Z,99813.00
2023-02-18T16:56:39.092Z,99827.00
2023-02-18T16:59:12.624Z,99806.00
2023-02-18T17:01:42.633Z,99817.00
2023-02-18T17:04:19.624Z,99818.00
2023-02-18T17:06:53.561Z,99826.00
2023-02-18T17:09:22.483Z,99835.00
2023-02-18T17:12:00.585Z,99801.00
2023-02-18T17:14:34.579Z,99834.00
2023-02-18T17:17:01.720Z,99835.00
2023-02-18T17:19:35.630Z,99823.00
2023-02-18T17:22:02.621Z,99813.00
2023-02-18T17:24:29.798Z,99827.00
2023-02-18T17:27:03.538Z,99811.00
2023-02-18T17:29:30.772Z,99826.00
2023-02-18T17:32:04.628Z,99826.00
2023-02-18T17:34:31.694Z,99805.00
2023-02-18T17:37:05.640Z,99837.00
2023-02-18T17:39:32.631Z,99826.00
2023-02-18T17:42:06.556Z,99833.00
2023-02-18T17:44:33.540Z,99822.00
2023-02-18T17:47:00.643Z,99819.00
2023-02-18T17:49:34.723Z,99802.00
2023-02-18T17:52:01.854Z,99832.00
2023-02-18T17:54:35.555Z,99833.00
2023-02-18T17:57:09.712Z,99829.00
2023-02-18T17:59:36.766Z,99833.00
2023-02-18T18:02:03.767Z,99843.00
2023-02-18T18:04:37.636Z,99845.00
2023-02-18T18:07:11.623Z,99832.00
2023-02-18T18:09:38.671Z,99839.00
2023-02-18T18:12:06.081Z,99843.00
2023-02-18T18:14:39.636Z,99826.00
2023-02-18T18:17:19.633Z,99824.00
2023-02-18T18:19:46.874Z,99829.00
2023-02-18T18:22:20.588Z,99830.00
2023-02-18T18:24:47.542Z,99846.00
2023-02-18T18:27:14.480Z,99839.00
2023-02-18T18:29:47.680Z,99853.00
2023-02-18T18:32:14.626Z,99828.00
2023-02-18T18:34:49.134Z,99832.00
2023-02-18T18:37:22.759Z,99812.00
2023-02-18T18:39:49.749Z,99852.00
2023-02-18T18:42:23.651Z,99833.00
2023-02-18T18:44:50.666Z,99845.00
2023-02-18T18:47:17.704Z,99845.00
2023-02-18T18:49:51.677Z,99821.00
2023-02-18T18:52:18.803Z,99844.00
2023-02-18T18:54:52.705Z,99845.00
2023-02-18T18:57:19.685Z,99843.00
2023-02-18T18:59:53.685Z,99833.00
2023-02-18T19:02:27.680Z,99839.00
2023-02-18T19:04:54.626Z,99856.00
2023-02-18T19:07:21.687Z,99837.00
2023-02-18T19:09:55.690Z,99853.00
2023-02-18T19:12:29.691Z,99834.00
2023-02-18T19:14:56.647Z,99843.00
2023-02-18T19:17:23.555Z,99851.00
2023-02-18T19:19:56.657Z,99838.00
2023-02-18T19:22:23.656Z,99850.00
2023-02-18T19:24:56.588Z,99843.00
2023-02-18T19:27:29.667Z,99833.00
2023-02-18T19:29:56.721Z,99837.00
2023-02-18T19:32:30.682Z,99828.00
2023-02-18T19:34:57.688Z,99845.00
2023-02-18T19:37:30.715Z,99841.00
2023-02-18T19:39:57.668Z,99852.00
2023-02-18T19:42:24.728Z,99849.00
2023-02-18T19:44:58.683Z,99848.00
2023-02-18T19:47:26.382Z,99846.00
2023-02-18T19:49:53.588Z,99854.00
2023-02-18T19:52:27.651Z,99843.00
2023-02-18T19:54:55.227Z,99854.00
2023-02-18T19:57:28.711Z,99850.00
2023-02-18T19:59:55.682Z,99825.00
2023-02-18T20:02:31.701Z,99853.00
2023-02-18T20:05:00.280Z,99852.00
2023-02-18T20:07:33.726Z,99846.00
2023-02-18T20:10:07.665Z,99872.00
2023-02-18T20:12:34.628Z,99875.00
2023-02-18T20:15:02.077Z,99865.00
2023-02-18T20:17:35.696Z,99850.00
2023-02-18T20:20:02.715Z,99868.00
2023-02-18T20:22:29.732Z,99871.00
2023-02-18T20:25:03.632Z,99840.00
2023-02-18T20:27:41.241Z,99883.00
2023-02-18T20:30:21.763Z,99875.00
2023-02-18T20:32:48.930Z,99873.00
2023-02-18T20:35:16.090Z,99886.00
2023-02-18T20:37:49.838Z,99875.00
2023-02-18T20:40:17.188Z,99870.00
2023-02-18T20:42:50.725Z,99831.00
2023-02-18T20:45:24.703Z,99871.00
2023-02-18T20:47:58.766Z,99872.00
2023-02-18T20:50:32.733Z,99879.00
2023-02-18T20:52:59.795Z,99849.00
2023-02-18T20:55:26.889Z,99883.00
2023-02-18T20:58:00.691Z,99866.00
2023-02-18T21:00:27.719Z,99859.00
2023-02-18T21:03:01.723Z,99873.00
2023-02-18T21:05:28.807Z,99867.00
2023-02-18T21:07:55.933Z,99884.00
2023-02-18T21:10:29.757Z,99872.00
2023-02-18T21:12:56.721Z,99862.00
2023-02-18T21:15:23.735Z,99882.00
2023-02-18T21:17:57.746Z,99880.00
2023-02-18T21:20:24.796Z,99872.00
2023-02-18T21:22:51.887Z,99870.00
2023-02-18T21:25:25.784Z,99881.00
2023-02-18T21:27:52.778Z,99876.00
2023-02-18T21:30:19.809Z,99877.00
2023-02-18T21:32:53.792Z,99882.00
2023-02-18T21:35:20.664Z,99889.00
2023-02-18T21:37:47.585Z,99888.00
2023-02-18T21:40:20.731Z,99900.00
2023-02-18T21:42:47.795Z,99867.00
2023-02-18T21:45:14.705Z,99886.00
2023-02-18T21:47:47.686Z,99882.00
2023-02-18T21:50:15.652Z,99875.00
2023-02-18T21:52:42.841Z,99873.00
2023-02-18T21:55:16.802Z,99870.00
2023-02-18T21:57:43.650Z,99869.00
2023-02-18T22:00:20.789Z,99874.00
2023-02-18T22:02:54.722Z,99883.00
2023-02-18T22:05:21.586Z,99869.00
2023-02-18T22:07:48.432Z,99878.00
2023-02-18T22:10:21.715Z,99868.00
2023-02-18T22:12:48.662Z,99887.00
2023-02-18T22:15:15.636Z,99879.00
2023-02-18T22:17:48.750Z,99887.00
2023-02-18T22:20:15.730Z,99883.00
2023-02-18T22:22:42.611Z,99854.00
2023-02-18T22:25:15.697Z,99871.00
2023-02-18T22:27:48.681Z,99880.00
2023-02-18T22:30:15.792Z,99878.00
2023-02-18T22:32:48.757Z,99888.00
2023-02-18T22:35:16.910Z,99866.00
2023-02-18T22:37:43.927Z,99849.00
2023-02-18T22:40:17.688Z,99874.00
2023-02-18T22:42:44.594Z,99872.00
2023-02-18T22:45:11.562Z,99870.00
2023-02-18T22:47:44.696Z,99864.00
2023-02-18T22:50:11.552Z,99876.00
2023-02-18T22:52:38.409Z,99869.00
2023-02-18T22:55:12.737Z,99864.00
2023-02-18T22:57:39.582Z,99867.00
2023-02-18T23:00:15.731Z,99856.00
2023-02-18T23:02:42.683Z,99874.00
2023-02-18T23:05:09.633Z,99860.00
2023-02-18T23:07:44.691Z,99868.00
2023-02-18T23:10:11.609Z,99844.00
2023-02-18T23:12:44.761Z,99872.00
2023-02-18T23:15:14.065Z,99864.00
2023-02-18T23:17:47.721Z,99864.00
2023-02-18T23:20:14.725Z,99852.00
2023-02-18T23:22:41.649Z,99852.00
2023-02-18T23:25:14.783Z,99865.00
2023-02-18T23:27:41.994Z,99871.00
2023-02-18T23:30:10.178Z,99865.00
2023-02-18T23:32:43.722Z,99876.00
2023-02-18T23:35:10.654Z,99858.00
2023-02-18T23:37:44.767Z,99878.00
2023-02-18T23:40:11.769Z,99862.00
2023-02-18T23:42:44.744Z,99863.00
2023-02-18T23:45:11.706Z,99870.00
2023-02-18T23:47:45.830Z,99863.00
2023-02-18T23:50:12.811Z,99874.00
2023-02-18T23:52:39.850Z,99863.00
2023-02-18T23:55:13.782Z,99855.00
2023-02-18T23:57:40.893Z,99857.00
